createdAt,value
2022-10-31T00:01:18.736Z,50.28
2022-10-31T00:04:30.530Z,49.95
2022-10-31T00:07:42.321Z,51.75
2022-10-31T00:10:54.311Z,53.18
2022-10-31T00:14:07.240Z,55.65
2022-10-31T00:17:18.858Z,46.40
2022-10-31T00:20:30.715Z,51.95
2022-10-31T00:23:43.450Z,50.65
2022-10-31T00:26:55.081Z,50.10
2022-10-31T00:30:07.253Z,48.78
2022-10-31T00:33:18.873Z,44.40
2022-10-31T00:36:30.525Z,44.85
2022-10-31T00:39:42.141Z,46.70
2022-10-31T00:42:54.017Z,50.63
2022-10-31T00:46:05.706Z,43.58
2022-10-31T00:49:19.659Z,40.95
2022-10-31T00:52:31.841Z,48.90
2022-10-31T00:55:43.655Z,44.40
2022-10-31T00:58:55.442Z,48.13
2022-10-31T01:02:07.355Z,46.80
2022-10-31T01:05:19.884Z,43.88
2022-10-31T01:08:32.113Z,43.25
2022-10-31T01:11:43.753Z,40.98
2022-10-31T01:14:55.665Z,38.88
2022-10-31T01:18:07.377Z,46.15
2022-10-31T01:21:22.617Z,43.88
2022-10-31T01:24:35.127Z,44.10
2022-10-31T01:27:47.419Z,42.10
2022-10-31T01:30:59.402Z,43.38
2022-10-31T01:34:12.087Z,44.73
2022-10-31T01:37:23.701Z,39.75
2022-10-31T01:40:38.753Z,40.38
2022-10-31T01:43:59.874Z,39.43
2022-10-31T01:47:16.658Z,35.73
2022-10-31T01:50:39.166Z,39.18
2022-10-31T01:53:52.556Z,45.13
2022-10-31T01:57:05.408Z,37.85
2022-10-31T02:00:20.815Z,37.55
2022-10-31T02:03:35.201Z,39.38
2022-10-31T02:06:51.989Z,39.58
2022-10-31T02:10:06.025Z,36.20
2022-10-31T02:13:19.717Z,36.45
2022-10-31T02:16:33.608Z,44.30
2022-10-31T02:19:52.424Z,45.10
2022-10-31T02:23:50.417Z,40.38
2022-10-31T02:27:38.254Z,41.73
2022-10-31T02:31:02.626Z,43.08
2022-10-31T02:34:21.427Z,39.68
2022-10-31T02:37:40.192Z,41.08
2022-10-31T02:41:01.760Z,42.48
2022-10-31T02:44:27.983Z,39.40
2022-10-31T02:47:43.717Z,38.78
2022-10-31T02:51:00.575Z,41.40
2022-10-31T02:54:22.793Z,44.28
2022-10-31T02:57:39.840Z,41.83
2022-10-31T03:01:06.032Z,42.73
2022-10-31T03:04:49.911Z,46.63
2022-10-31T03:08:09.846Z,39.70
2022-10-31T03:11:23.725Z,39.40
2022-10-31T03:14:44.126Z,41.23
2022-10-31T03:18:03.992Z,41.63
2022-10-31T03:21:21.973Z,41.10
2022-10-31T03:24:39.503Z,42.25
2022-10-31T03:27:53.070Z,43.63
2022-10-31T03:31:07.358Z,45.43
2022-10-31T03:34:22.661Z,41.13
2022-10-31T03:37:38.141Z,41.58
2022-10-31T03:40:53.634Z,40.45
2022-10-31T03:44:10.224Z,44.15
2022-10-31T03:47:23.992Z,41.23
2022-10-31T03:50:41.929Z,44.43
2022-10-31T03:53:59.887Z,43.75
2022-10-31T03:57:19.398Z,44.68
2022-10-31T04:00:31.638Z,43.70
2022-10-31T04:03:44.966Z,40.20
2022-10-31T04:06:59.185Z,43.45
2022-10-31T04:10:16.748Z,41.85
2022-10-31T04:13:33.356Z,45.18
2022-10-31T04:16:51.329Z,37.83
2022-10-31T04:20:07.817Z,40.83
2022-10-31T04:23:26.188Z,40.28
2022-10-31T04:26:38.491Z,41.68
2022-10-31T04:29:51.040Z,41.93
2022-10-31T04:33:03.460Z,40.33
2022-10-31T04:36:16.239Z,44.00
2022-10-31T04:39:28.109Z,42.75
2022-10-31T04:42:57.003Z,40.53
2022-10-31T04:46:09.282Z,37.40
2022-10-31T04:49:21.415Z,36.88
2022-10-31T04:52:33.402Z,39.35
2022-10-31T04:55:45.553Z,40.50
2022-10-31T04:59:05.531Z,41.40
2022-10-31T05:02:19.368Z,40.03
2022-10-31T05:05:35.665Z,44.73
2022-10-31T05:08:48.770Z,41.38
2022-10-31T05:12:00.810Z,42.75
2022-10-31T05:15:33.249Z,36.00
2022-10-31T05:18:50.447Z,40.25
2022-10-31T05:22:20.784Z,46.68
2022-10-31T05:25:34.212Z,38.08
2022-10-31T05:28:47.848Z,38.33
2022-10-31T05:31:59.776Z,37.58
2022-10-31T05:35:28.153Z,37.88
2022-10-31T05:38:58.747Z,33.80
2022-10-31T05:42:12.725Z,35.45
2022-10-31T05:45:27.605Z,35.23
2022-10-31T05:48:41.204Z,37.88
2022-10-31T05:52:12.158Z,33.35
2022-10-31T05:55:28.508Z,38.85
2022-10-31T05:58:45.434Z,39.10
2022-10-31T06:01:57.308Z,32.58
2022-10-31T06:05:23.429Z,43.25
2022-10-31T06:08:35.548Z,32.90
2022-10-31T06:11:49.155Z,38.60
2022-10-31T06:15:11.108Z,31.65
2022-10-31T06:18:23.049Z,37.08
2022-10-31T06:21:36.903Z,37.98
2022-10-31T06:24:48.762Z,33.43
2022-10-31T06:28:02.876Z,33.05
2022-10-31T06:31:16.735Z,32.15
2022-10-31T06:34:28.590Z,35.25
2022-10-31T06:37:40.549Z,31.50
2022-10-31T06:40:57.160Z,33.58
2022-10-31T06:44:11.861Z,33.43
2022-10-31T06:48:14.906Z,31.90
2022-10-31T06:50:59.732Z,32.15
2022-10-31T06:54:12.444Z,35.43
2022-10-31T06:57:24.216Z,28.88
2022-10-31T07:00:37.669Z,29.08
2022-10-31T07:03:51.412Z,31.08
2022-10-31T07:07:03.668Z,26.73
2022-10-31T07:10:16.481Z,26.48
2022-10-31T07:13:31.037Z,29.48
2022-10-31T07:16:44.600Z,28.58
2022-10-31T07:19:58.344Z,34.23
2022-10-31T07:23:10.648Z,31.55
2022-10-31T07:26:22.724Z,34.95
2022-10-31T07:29:34.597Z,28.80
2022-10-31T07:32:51.477Z,28.03
2022-10-31T07:39:15.313Z,30.15
2022-10-31T07:42:27.318Z,26.08
2022-10-31T07:45:39.067Z,33.40
2022-10-31T07:49:09.797Z,21.63
2022-10-31T07:52:42.597Z,28.25
2022-10-31T07:56:15.086Z,25.40
2022-10-31T07:59:28.294Z,26.28
2022-10-31T08:02:40.238Z,28.03
2022-10-31T08:06:01.347Z,25.98
2022-10-31T08:09:15.133Z,28.38
2022-10-31T08:12:29.126Z,23.05
2022-10-31T08:15:43.005Z,26.35
2022-10-31T08:18:56.620Z,23.83
2022-10-31T08:22:08.497Z,19.98
2022-10-31T08:25:20.578Z,28.38
2022-10-31T08:28:32.719Z,22.08
2022-10-31T08:31:44.731Z,24.58
2022-10-31T08:35:15.915Z,23.95
2022-10-31T08:38:46.809Z,22.73
2022-10-31T08:41:58.764Z,22.38
2022-10-31T08:45:11.890Z,22.93
2022-10-31T08:48:24.537Z,28.23
2022-10-31T08:51:37.893Z,25.23
2022-10-31T09:48:18.891Z,17.90
2022-10-31T09:54:48.746Z,25.40
2022-10-31T10:19:05.807Z,18.58
2022-10-31T10:29:00.390Z,19.20
2022-10-31T11:22:24.947Z,15.60
2022-10-31T11:25:36.704Z,17.98
2022-10-31T11:28:48.372Z,17.85
2022-10-31T11:32:02.668Z,20.08
2022-10-31T11:35:20.156Z,18.13
2022-10-31T11:38:37.110Z,16.98
2022-10-31T11:41:49.239Z,15.20
2022-10-31T11:45:03.098Z,20.58
2022-10-31T11:48:26.107Z,19.58
2022-10-31T11:51:40.686Z,20.88
2022-10-31T12:51:58.781Z,21.65
2022-10-31T13:10:36.952Z,20.43
2022-10-31T13:35:28.760Z,22.50
2022-10-31T13:38:46.286Z,19.25
2022-10-31T13:42:03.716Z,22.15
2022-10-31T13:45:25.652Z,23.08
2022-10-31T13:48:49.748Z,19.50
2022-10-31T13:52:19.623Z,19.20
2022-10-31T13:55:49.983Z,27.23
2022-10-31T13:59:26.509Z,26.75
2022-10-31T14:02:41.737Z,28.45
2022-10-31T14:06:00.449Z,27.88
2022-10-31T14:09:23.963Z,23.78
2022-10-31T14:12:42.736Z,20.40
2022-10-31T14:16:07.431Z,24.53
2022-10-31T14:19:25.486Z,19.48
2022-10-31T14:22:42.756Z,21.33
2022-10-31T14:25:55.421Z,24.70
2022-10-31T14:29:23.125Z,22.08
2022-10-31T14:32:36.500Z,28.00
2022-10-31T14:35:59.579Z,23.05
2022-10-31T14:39:17.118Z,23.38
2022-10-31T14:42:51.751Z,17.48
2022-10-31T14:46:09.575Z,26.23
2022-10-31T14:49:50.440Z,18.38
2022-10-31T14:53:08.246Z,31.15
2022-10-31T14:56:25.010Z,30.90
2022-10-31T14:59:42.067Z,26.23
2022-10-31T15:06:17.485Z,33.75
2022-10-31T15:09:36.910Z,28.75
2022-10-31T15:12:49.370Z,32.60
2022-10-31T15:16:03.185Z,24.80
2022-10-31T15:19:22.376Z,22.70
2022-10-31T15:22:38.503Z,27.25
2022-10-31T15:25:51.798Z,25.40
2022-10-31T15:29:10.678Z,24.88
2022-10-31T15:32:29.185Z,26.18
2022-10-31T15:35:41.629Z,26.20
2022-10-31T15:38:54.045Z,32.98
2022-10-31T15:42:06.976Z,22.70
2022-10-31T15:45:29.646Z,26.50
2022-10-31T15:48:42.476Z,31.73
2022-10-31T15:51:54.957Z,28.68
2022-10-31T15:55:11.378Z,26.75
2022-10-31T15:58:25.440Z,24.45
2022-10-31T16:01:40.206Z,30.08
2022-10-31T16:05:02.117Z,30.68
2022-10-31T16:08:35.346Z,27.60
2022-10-31T16:11:48.066Z,24.33
2022-10-31T16:15:01.950Z,32.98
2022-10-31T16:18:16.265Z,32.73
2022-10-31T16:21:36.848Z,32.25
2022-10-31T16:24:54.250Z,29.93
2022-10-31T16:31:36.086Z,26.73
2022-10-31T16:34:50.742Z,25.33
2022-10-31T16:38:07.047Z,32.38
2022-10-31T16:41:23.518Z,28.08
2022-10-31T16:44:39.867Z,35.30
2022-10-31T16:47:53.657Z,33.30
2022-10-31T16:51:08.873Z,31.15
2022-10-31T16:54:24.810Z,30.30
2022-10-31T16:57:39.166Z,34.80
2022-10-31T17:00:51.935Z,30.05
2022-10-31T17:04:04.355Z,28.78
2022-10-31T17:07:16.762Z,31.75
2022-10-31T17:10:29.522Z,36.40
2022-10-31T17:13:43.144Z,34.88
2022-10-31T17:16:58.250Z,27.75
2022-10-31T17:20:18.193Z,39.08
2022-10-31T17:23:33.231Z,34.75
2022-10-31T17:26:47.229Z,35.25
2022-10-31T17:29:59.628Z,34.65
2022-10-31T17:33:12.040Z,30.25
2022-10-31T17:36:24.305Z,32.18
2022-10-31T17:39:36.751Z,35.85
2022-10-31T17:42:51.423Z,39.03
2022-10-31T17:46:07.010Z,38.60
2022-10-31T17:49:21.709Z,33.08
2022-10-31T17:52:34.049Z,35.18
2022-10-31T17:55:46.227Z,36.35
2022-10-31T17:58:58.622Z,38.25
2022-10-31T18:02:11.815Z,33.00
2022-10-31T18:05:24.559Z,33.78
2022-10-31T18:08:39.847Z,33.73
2022-10-31T18:11:52.301Z,31.33
2022-10-31T18:15:05.239Z,31.15
2022-10-31T18:18:17.512Z,36.05
2022-10-31T18:21:30.227Z,27.98
2022-10-31T18:24:42.496Z,34.68
2022-10-31T18:27:54.865Z,103.40
2022-10-31T18:31:08.625Z,54.55
2022-10-31T18:34:20.928Z,38.28
2022-10-31T18:37:33.751Z,33.13
2022-10-31T18:40:45.972Z,36.48
2022-10-31T18:44:00.321Z,38.70
2022-10-31T18:47:13.074Z,32.15
2022-10-31T18:50:25.991Z,44.30
2022-10-31T18:53:38.685Z,40.18
2022-10-31T18:56:51.012Z,38.03
2022-10-31T19:00:03.052Z,37.33
2022-10-31T19:03:15.527Z,28.80
2022-10-31T19:06:27.885Z,37.30
2022-10-31T19:09:41.166Z,42.80
2022-10-31T19:12:54.010Z,44.15
2022-10-31T19:16:13.995Z,40.33
2022-10-31T19:19:27.382Z,49.50
2022-10-31T19:22:40.094Z,42.03
2022-10-31T19:25:52.758Z,45.23
2022-10-31T19:29:05.469Z,39.08
2022-10-31T19:32:18.301Z,37.35
2022-10-31T19:35:31.024Z,39.15
2022-10-31T19:38:45.692Z,41.00
2022-10-31T19:41:59.829Z,45.93
2022-10-31T19:45:14.001Z,37.13
2022-10-31T19:48:30.183Z,42.33
2022-10-31T19:55:06.050Z,42.98
2022-10-31T19:58:18.536Z,38.98
2022-10-31T20:01:32.081Z,42.60
2022-10-31T20:04:44.697Z,37.38
2022-10-31T20:07:56.977Z,39.18
2022-10-31T20:11:11.127Z,41.28
2022-10-31T20:14:25.987Z,36.85
2022-10-31T20:17:38.289Z,35.43
2022-10-31T20:20:50.935Z,41.95
2022-10-31T20:24:05.809Z,44.63
2022-10-31T20:27:18.486Z,38.78
2022-10-31T20:30:31.231Z,42.93
2022-10-31T20:33:44.013Z,43.28
2022-10-31T20:36:56.363Z,41.73
2022-10-31T20:40:09.022Z,37.18
2022-10-31T20:43:21.356Z,41.45
2022-10-31T20:46:34.629Z,37.60
2022-10-31T20:49:46.940Z,38.73
2022-10-31T20:52:59.703Z,39.70
2022-10-31T20:56:16.039Z,37.10
2022-10-31T20:59:28.222Z,39.45
2022-10-31T21:02:41.939Z,49.05
2022-10-31T21:06:02.827Z,40.80
2022-10-31T21:09:15.537Z,43.63
2022-10-31T21:12:27.746Z,45.45
2022-10-31T21:15:40.553Z,43.25
2022-10-31T21:18:54.590Z,45.15
2022-10-31T21:22:06.712Z,44.80
2022-10-31T21:25:19.060Z,48.68
2022-10-31T21:28:31.442Z,48.10
2022-10-31T21:31:45.556Z,44.95
2022-10-31T21:34:57.803Z,45.88
2022-10-31T21:38:10.228Z,45.25
2022-10-31T21:41:24.425Z,51.30
2022-10-31T21:44:36.776Z,50.68
2022-10-31T21:47:49.065Z,48.73
2022-10-31T21:51:01.616Z,50.60
2022-10-31T21:54:34.560Z,47.15
2022-10-31T21:57:47.410Z,48.13
2022-10-31T22:00:59.918Z,47.20
2022-10-31T22:04:12.764Z,45.05
2022-10-31T22:07:25.081Z,43.10
2022-10-31T22:10:37.284Z,39.85
2022-10-31T22:13:52.109Z,44.53
2022-10-31T22:17:04.322Z,42.60
2022-10-31T22:20:17.997Z,42.58
2022-10-31T22:23:31.393Z,43.85
2022-10-31T22:26:44.015Z,37.78
2022-10-31T22:29:56.800Z,44.10
2022-10-31T22:33:09.176Z,48.63
2022-10-31T22:36:25.373Z,42.83
2022-10-31T22:39:37.761Z,48.03
2022-10-31T22:42:49.852Z,74.93
2022-10-31T22:46:07.017Z,156.90
2022-10-31T22:52:30.920Z,159.60
2022-10-31T22:55:43.936Z,183.80
2022-10-31T22:58:56.692Z,117.00
2022-10-31T23:02:11.555Z,90.58
2022-10-31T23:05:23.351Z,95.38
2022-10-31T23:08:38.642Z,113.13
2022-10-31T23:11:51.317Z,284.40
2022-10-31T23:15:03.578Z,263.68
2022-10-31T23:18:30.145Z,150.63
2022-10-31T23:21:50.048Z,142.23
2022-10-31T23:25:02.730Z,173.78
2022-10-31T23:28:14.848Z,69.53
2022-10-31T23:31:26.887Z,81.85
2022-10-31T23:34:38.967Z,99.30
2022-10-31T23:37:50.961Z,75.35
2022-10-31T23:41:03.364Z,54.40
2022-10-31T23:44:15.374Z,67.53
2022-10-31T23:47:28.400Z,63.35
2022-10-31T23:50:40.713Z,90.90
2022-10-31T23:53:53.924Z,111.00
2022-10-31T23:57:06.719Z,111.18
